sensor_id;sensor_type;location;lat;lon;timestamp;temperature;humidity
34492;DHT22;20737;49.908;8.126;2023-04-03T00:01:35;4.80;99.90
34492;DHT22;20737;49.908;8.126;2023-04-03T00:04:04;4.80;99.90
34492;DHT22;20737;49.908;8.126;2023-04-03T00:06:32;4.80;99.90
34492;DHT22;20737;49.908;8.126;2023-04-03T00:09:00;4.80;99.90
34492;DHT22;20737;49.908;8.126;2023-04-03T00:11:27;4.80;99.90
34492;DHT22;20737;49.908;8.126;2023-04-03T00:13:53;4.80;99.90
34492;DHT22;20737;49.908;8.126;2023-04-03T00:16:23;4.80;99.90
34492;DHT22;20737;49.908;8.126;2023-04-03T00:18:50;4.80;99.90
34492;DHT22;20737;49.908;8.126;2023-04-03T00:21:17;4.90;99.90
34492;DHT22;20737;49.908;8.126;2023-04-03T00:23:43;4.80;99.90
34492;DHT22;20737;49.908;8.126;2023-04-03T00:26:11;4.80;99.90
34492;DHT22;20737;49.908;8.126;2023-04-03T00:28:40;4.80;99.90
34492;DHT22;20737;49.908;8.126;2023-04-03T00:31:07;4.80;99.90
34492;DHT22;20737;49.908;8.126;2023-04-03T00:33:34;4.80;99.90
34492;DHT22;20737;49.908;8.126;2023-04-03T00:36:06;4.80;99.90
34492;DHT22;20737;49.908;8.126;2023-04-03T00:38:32;4.80;99.90
34492;DHT22;20737;49.908;8.126;2023-04-03T00:40:59;4.80;99.90
34492;DHT22;20737;49.908;8.126;2023-04-03T00:43:27;4.80;99.90
34492;DHT22;20737;49.908;8.126;2023-04-03T00:45:56;4.80;99.90
34492;DHT22;20737;49.908;8.126;2023-04-03T00:48:27;4.80;99.90
34492;DHT22;20737;49.908;8.126;2023-04-03T00:50:54;4.80;99.90
34492;DHT22;20737;49.908;8.126;2023-04-03T00:53:24;4.70;99.90
34492;DHT22;20737;49.908;8.126;2023-04-03T00:55:52;4.70;99.90
34492;DHT22;20737;49.908;8.126;2023-04-03T00:58:23;4.70;99.90
34492;DHT22;20737;49.908;8.126;2023-04-03T01:00:55;4.70;99.90
34492;DHT22;20737;49.908;8.126;2023-04-03T01:03:24;4.70;99.90
34492;DHT22;20737;49.908;8.126;2023-04-03T01:05:50;4.80;99.90
34492;DHT22;20737;49.908;8.126;2023-04-03T01:08:17;4.80;99.90
34492;DHT22;20737;49.908;8.126;2023-04-03T01:10:44;4.80;99.90
34492;DHT22;20737;49.908;8.126;2023-04-03T01:13:20;4.80;99.90
34492;DHT22;20737;49.908;8.126;2023-04-03T01:15:49;4.90;99.90
34492;DHT22;20737;49.908;8.126;2023-04-03T01:18:18;4.80;99.90
34492;DHT22;20737;49.908;8.126;2023-04-03T01:21:20;4.80;99.90
34492;DHT22;20737;49.908;8.126;2023-04-03T01:24:06;4.80;99.90
34492;DHT22;20737;49.908;8.126;2023-04-03T01:26:35;4.80;99.90
34492;DHT22;20737;49.908;8.126;2023-04-03T01:29:04;4.80;99.90
34492;DHT22;20737;49.908;8.126;2023-04-03T01:34:16;4.70;99.90
34492;DHT22;20737;49.908;8.126;2023-04-03T01:36:43;4.80;99.90
34492;DHT22;20737;49.908;8.126;2023-04-03T01:39:10;4.70;99.90
34492;DHT22;20737;49.908;8.126;2023-04-03T01:41:37;4.70;99.90
34492;DHT22;20737;49.908;8.126;2023-04-03T01:44:04;4.70;99.90
34492;DHT22;20737;49.908;8.126;2023-04-03T01:46:31;4.70;99.90
34492;DHT22;20737;49.908;8.126;2023-04-03T01:48:58;4.70;99.90
34492;DHT22;20737;49.908;8.126;2023-04-03T01:51:26;4.80;99.90
34492;DHT22;20737;49.908;8.126;2023-04-03T01:53:52;4.80;99.90
34492;DHT22;20737;49.908;8.126;2023-04-03T01:56:20;4.80;99.90
34492;DHT22;20737;49.908;8.126;2023-04-03T01:58:46;4.80;99.90
34492;DHT22;20737;49.908;8.126;2023-04-03T02:01:13;4.80;99.90
34492;DHT22;20737;49.908;8.126;2023-04-03T02:03:40;4.80;99.90
34492;DHT22;20737;49.908;8.126;2023-04-03T02:06:07;4.80;99.90
34492;DHT22;20737;49.908;8.126;2023-04-03T02:08:35;4.90;99.90
34492;DHT22;20737;49.908;8.126;2023-04-03T02:11:02;4.80;99.90
34492;DHT22;20737;49.908;8.126;2023-04-03T02:13:28;4.80;99.90
34492;DHT22;20737;49.908;8.126;2023-04-03T02:15:55;4.80;99.90
34492;DHT22;20737;49.908;8.126;2023-04-03T02:18:22;4.80;99.90
34492;DHT22;20737;49.908;8.126;2023-04-03T02:20:48;4.80;99.90
34492;DHT22;20737;49.908;8.126;2023-04-03T02:23:15;4.90;99.90
34492;DHT22;20737;49.908;8.126;2023-04-03T02:25:43;4.80;99.90
34492;DHT22;20737;49.908;8.126;2023-04-03T02:28:10;4.80;99.90
34492;DHT22;20737;49.908;8.126;2023-04-03T02:30:37;4.80;99.90
34492;DHT22;20737;49.908;8.126;2023-04-03T02:33:14;4.90;99.90
34492;DHT22;20737;49.908;8.126;2023-04-03T02:35:41;4.90;99.90
34492;DHT22;20737;49.908;8.126;2023-04-03T02:38:08;4.90;99.90
34492;DHT22;20737;49.908;8.126;2023-04-03T02:40:34;4.80;99.90
34492;DHT22;20737;49.908;8.126;2023-04-03T02:43:02;4.80;99.90
34492;DHT22;20737;49.908;8.126;2023-04-03T02:45:29;4.80;99.90
34492;DHT22;20737;49.908;8.126;2023-04-03T02:47:56;4.80;99.90
34492;DHT22;20737;49.908;8.126;2023-04-03T02:50:23;4.70;99.90
34492;DHT22;20737;49.908;8.126;2023-04-03T02:52:49;4.70;99.90
34492;DHT22;20737;49.908;8.126;2023-04-03T02:55:16;4.70;99.90
34492;DHT22;20737;49.908;8.126;2023-04-03T02:57:43;4.70;99.90
34492;DHT22;20737;49.908;8.126;2023-04-03T03:00:12;4.70;99.90
34492;DHT22;20737;49.908;8.126;2023-04-03T03:02:40;4.70;99.90
34492;DHT22;20737;49.908;8.126;2023-04-03T03:05:08;4.70;99.90
34492;DHT22;20737;49.908;8.126;2023-04-03T03:07:35;4.80;99.90
34492;DHT22;20737;49.908;8.126;2023-04-03T03:10:02;4.80;99.90
34492;DHT22;20737;49.908;8.126;2023-04-03T03:12:29;4.80;99.90
34492;DHT22;20737;49.908;8.126;2023-04-03T03:14:55;4.80;99.90
34492;DHT22;20737;49.908;8.126;2023-04-03T03:17:23;4.80;99.90
34492;DHT22;20737;49.908;8.126;2023-04-03T03:19:50;4.80;99.90
34492;DHT22;20737;49.908;8.126;2023-04-03T03:22:17;4.80;99.90
34492;DHT22;20737;49.908;8.126;2023-04-03T03:24:43;4.80;99.90
34492;DHT22;20737;49.908;8.126;2023-04-03T03:27:10;4.80;99.90
34492;DHT22;20737;49.908;8.126;2023-04-03T03:29:37;4.80;99.90
34492;DHT22;20737;49.908;8.126;2023-04-03T03:32:04;4.80;99.90
34492;DHT22;20737;49.908;8.126;2023-04-03T03:34:33;4.80;99.90
34492;DHT22;20737;49.908;8.126;2023-04-03T03:37:00;4.80;99.90
34492;DHT22;20737;49.908;8.126;2023-04-03T03:39:26;4.70;99.90
34492;DHT22;20737;49.908;8.126;2023-04-03T03:41:53;4.70;99.90
34492;DHT22;20737;49.908;8.126;2023-04-03T03:44:20;4.70;99.90
34492;DHT22;20737;49.908;8.126;2023-04-03T03:46:47;4.70;99.90
34492;DHT22;20737;49.908;8.126;2023-04-03T03:49:13;4.70;99.90
34492;DHT22;20737;49.908;8.126;2023-04-03T03:51:42;4.80;99.90
34492;DHT22;20737;49.908;8.126;2023-04-03T03:54:09;4.80;99.90
34492;DHT22;20737;49.908;8.126;2023-04-03T03:56:36;4.80;99.90
34492;DHT22;20737;49.908;8.126;2023-04-03T03:59:03;4.80;99.90
34492;DHT22;20737;49.908;8.126;2023-04-03T04:01:30;4.90;99.90
34492;DHT22;20737;49.908;8.126;2023-04-03T04:03:56;4.90;99.90
34492;DHT22;20737;49.908;8.126;2023-04-03T04:06:23;4.90;99.90
34492;DHT22;20737;49.908;8.126;2023-04-03T04:08:51;4.90;99.90
34492;DHT22;20737;49.908;8.126;2023-04-03T04:11:19;4.80;99.90
34492;DHT22;20737;49.908;8.126;2023-04-03T04:13:46;4.80;99.90
34492;DHT22;20737;49.908;8.126;2023-04-03T04:16:13;4.80;99.90
34492;DHT22;20737;49.908;8.126;2023-04-03T04:18:40;4.80;99.90
34492;DHT22;20737;49.908;8.126;2023-04-03T04:21:07;4.70;99.90
34492;DHT22;20737;49.908;8.126;2023-04-03T04:23:33;4.60;99.90
34492;DHT22;20737;49.908;8.126;2023-04-03T04:26:01;4.50;99.90
34492;DHT22;20737;49.908;8.126;2023-04-03T04:28:28;4.50;99.90
34492;DHT22;20737;49.908;8.126;2023-04-03T04:30:55;4.50;99.90
34492;DHT22;20737;49.908;8.126;2023-04-03T04:33:22;4.50;99.90
34492;DHT22;20737;49.908;8.126;2023-04-03T04:35:48;4.50;99.90
34492;DHT22;20737;49.908;8.126;2023-04-03T04:38:15;4.40;99.90
34492;DHT22;20737;49.908;8.126;2023-04-03T04:40:42;4.40;99.90
34492;DHT22;20737;49.908;8.126;2023-04-03T04:43:10;4.50;99.90
34492;DHT22;20737;49.908;8.126;2023-04-03T04:45:39;4.50;99.90
34492;DHT22;20737;49.908;8.126;2023-04-03T04:48:06;4.50;99.90
34492;DHT22;20737;49.908;8.126;2023-04-03T04:50:33;4.40;99.90
34492;DHT22;20737;49.908;8.126;2023-04-03T04:53:00;4.40;99.90
34492;DHT22;20737;49.908;8.126;2023-04-03T04:55:29;4.40;99.90
34492;DHT22;20737;49.908;8.126;2023-04-03T04:57:56;4.40;99.90
34492;DHT22;20737;49.908;8.126;2023-04-03T05:00:24;4.40;99.90
34492;DHT22;20737;49.908;8.126;2023-04-03T05:02:51;4.30;99.90
34492;DHT22;20737;49.908;8.126;2023-04-03T05:05:19;4.30;99.90
34492;DHT22;20737;49.908;8.126;2023-04-03T05:07:46;4.30;99.90
34492;DHT22;20737;49.908;8.126;2023-04-03T05:10:12;4.20;99.90
34492;DHT22;20737;49.908;8.126;2023-04-03T05:12:39;4.20;99.90
34492;DHT22;20737;49.908;8.126;2023-04-03T05:15:07;4.10;99.90
34492;DHT22;20737;49.908;8.126;2023-04-03T05:17:35;4.10;99.90
34492;DHT22;20737;49.908;8.126;2023-04-03T05:20:02;4.10;99.90
34492;DHT22;20737;49.908;8.126;2023-04-03T05:22:30;4.10;99.90
34492;DHT22;20737;49.908;8.126;2023-04-03T05:24:57;4.20;99.90
34492;DHT22;20737;49.908;8.126;2023-04-03T05:27:23;4.10;99.90
34492;DHT22;20737;49.908;8.126;2023-04-03T05:29:53;4.10;99.90
34492;DHT22;20737;49.908;8.126;2023-04-03T05:32:20;4.10;99.90
34492;DHT22;20737;49.908;8.126;2023-04-03T05:34:48;4.10;99.90
34492;DHT22;20737;49.908;8.126;2023-04-03T05:37:15;4.10;99.90
34492;DHT22;20737;49.908;8.126;2023-04-03T05:39:42;4.10;99.90
34492;DHT22;20737;49.908;8.126;2023-04-03T05:42:08;4.20;99.90
34492;DHT22;20737;49.908;8.126;2023-04-03T05:44:36;4.20;99.90
34492;DHT22;20737;49.908;8.126;2023-04-03T05:47:03;4.20;99.90
34492;DHT22;20737;49.908;8.126;2023-04-03T05:49:30;4.30;99.90
34492;DHT22;20737;49.908;8.126;2023-04-03T05:51:58;4.30;99.90
34492;DHT22;20737;49.908;8.126;2023-04-03T05:54:26;4.30;99.90
34492;DHT22;20737;49.908;8.126;2023-04-03T05:56:54;4.40;99.90
34492;DHT22;20737;49.908;8.126;2023-04-03T05:59:21;4.40;99.90
34492;DHT22;20737;49.908;8.126;2023-04-03T06:01:48;4.50;99.90
34492;DHT22;20737;49.908;8.126;2023-04-03T06:04:15;4.70;99.90
34492;DHT22;20737;49.908;8.126;2023-04-03T06:06:44;4.80;99.90
34492;DHT22;20737;49.908;8.126;2023-04-03T06:09:12;4.70;99.90
34492;DHT22;20737;49.908;8.126;2023-04-03T06:11:39;4.70;99.90
34492;DHT22;20737;49.908;8.126;2023-04-03T06:14:05;4.70;99.90
34492;DHT22;20737;49.908;8.126;2023-04-03T06:16:33;4.80;99.90
34492;DHT22;20737;49.908;8.126;2023-04-03T06:19:00;4.80;99.90
34492;DHT22;20737;49.908;8.126;2023-04-03T06:21:27;4.80;99.90
34492;DHT22;20737;49.908;8.126;2023-04-03T06:23:53;5.00;99.90
34492;DHT22;20737;49.908;8.126;2023-04-03T06:26:22;5.10;99.90
34492;DHT22;20737;49.908;8.126;2023-04-03T06:28:49;5.20;99.90
34492;DHT22;20737;49.908;8.126;2023-04-03T06:31:15;5.20;99.90
34492;DHT22;20737;49.908;8.126;2023-04-03T06:33:42;5.20;99.90
34492;DHT22;20737;49.908;8.126;2023-04-03T06:36:11;5.30;99.90
34492;DHT22;20737;49.908;8.126;2023-04-03T06:38:38;5.30;99.90
34492;DHT22;20737;49.908;8.126;2023-04-03T06:41:04;5.50;99.90
34492;DHT22;20737;49.908;8.126;2023-04-03T06:43:32;5.50;99.90
34492;DHT22;20737;49.908;8.126;2023-04-03T06:45:59;5.40;99.90
34492;DHT22;20737;49.908;8.126;2023-04-03T06:48:26;5.60;99.90
34492;DHT22;20737;49.908;8.126;2023-04-03T06:50:53;5.80;99.90
34492;DHT22;20737;49.908;8.126;2023-04-03T06:53:20;5.90;99.90
34492;DHT22;20737;49.908;8.126;2023-04-03T06:55:47;6.00;99.90
34492;DHT22;20737;49.908;8.126;2023-04-03T06:58:13;6.10;99.90
34492;DHT22;20737;49.908;8.126;2023-04-03T07:00:43;6.20;99.90
34492;DHT22;20737;49.908;8.126;2023-04-03T07:03:10;7.30;99.90
34492;DHT22;20737;49.908;8.126;2023-04-03T07:05:37;7.80;99.90
34492;DHT22;20737;49.908;8.126;2023-04-03T07:08:04;8.40;99.90
34492;DHT22;20737;49.908;8.126;2023-04-03T07:10:31;9.60;99.90
34492;DHT22;20737;49.908;8.126;2023-04-03T07:12:59;11.40;99.90
34492;DHT22;20737;49.908;8.126;2023-04-03T07:15:27;13.20;96.90
34492;DHT22;20737;49.908;8.126;2023-04-03T07:17:55;13.90;92.60
34492;DHT22;20737;49.908;8.126;2023-04-03T07:20:22;14.10;89.90
34492;DHT22;20737;49.908;8.126;2023-04-03T07:22:48;14.30;86.00
34492;DHT22;20737;49.908;8.126;2023-04-03T07:25:16;14.30;83.60
34492;DHT22;20737;49.908;8.126;2023-04-03T07:27:42;13.80;82.00
34492;DHT22;20737;49.908;8.126;2023-04-03T07:30:10;14.30;82.70
34492;DHT22;20737;49.908;8.126;2023-04-03T07:32:39;14.40;79.00
34492;DHT22;20737;49.908;8.126;2023-04-03T07:35:08;14.00;80.30
34492;DHT22;20737;49.908;8.126;2023-04-03T07:37:34;14.30;78.00
34492;DHT22;20737;49.908;8.126;2023-04-03T07:40:02;14.90;75.80
34492;DHT22;20737;49.908;8.126;2023-04-03T07:42:29;15.20;73.20
34492;DHT22;20737;49.908;8.126;2023-04-03T07:44:57;14.90;74.80
34492;DHT22;20737;49.908;8.126;2023-04-03T07:47:23;14.80;73.60
34492;DHT22;20737;49.908;8.126;2023-04-03T07:49:50;14.90;73.00
34492;DHT22;20737;49.908;8.126;2023-04-03T07:52:18;15.10;72.00
34492;DHT22;20737;49.908;8.126;2023-04-03T07:54:45;15.70;69.40
34492;DHT22;20737;49.908;8.126;2023-04-03T07:57:12;16.20;69.20
34492;DHT22;20737;49.908;8.126;2023-04-03T07:59:38;16.30;67.40
34492;DHT22;20737;49.908;8.126;2023-04-03T08:02:08;16.60;67.20
34492;DHT22;20737;49.908;8.126;2023-04-03T08:04:35;17.00;64.10
34492;DHT22;20737;49.908;8.126;2023-04-03T08:07:02;16.80;62.10
34492;DHT22;20737;49.908;8.126;2023-04-03T08:09:30;17.00;63.40
34492;DHT22;20737;49.908;8.126;2023-04-03T08:11:57;17.40;62.40
34492;DHT22;20737;49.908;8.126;2023-04-03T08:14:24;17.00;61.20
34492;DHT22;20737;49.908;8.126;2023-04-03T08:16:50;17.50;61.20
34492;DHT22;20737;49.908;8.126;2023-04-03T08:19:17;18.50;59.30
34492;DHT22;20737;49.908;8.126;2023-04-03T08:21:44;18.60;57.50
34492;DHT22;20737;49.908;8.126;2023-04-03T08:24:12;18.50;57.00
34492;DHT22;20737;49.908;8.126;2023-04-03T08:26:40;18.00;56.60
34492;DHT22;20737;49.908;8.126;2023-04-03T08:29:07;18.00;58.30
34492;DHT22;20737;49.908;8.126;2023-04-03T08:31:33;17.90;58.00
34492;DHT22;20737;49.908;8.126;2023-04-03T08:34:00;18.10;57.40
34492;DHT22;20737;49.908;8.126;2023-04-03T08:36:28;18.10;56.40
34492;DHT22;20737;49.908;8.126;2023-04-03T08:38:56;18.10;56.20
34492;DHT22;20737;49.908;8.126;2023-04-03T08:41:29;18.60;56.20
34492;DHT22;20737;49.908;8.126;2023-04-03T08:44:08;18.50;54.20
34492;DHT22;20737;49.908;8.126;2023-04-03T08:46:46;18.40;53.70
34492;DHT22;20737;49.908;8.126;2023-04-03T08:49:22;19.00;54.30
34492;DHT22;20737;49.908;8.126;2023-04-03T08:51:51;18.60;54.50
34492;DHT22;20737;49.908;8.126;2023-04-03T08:54:28;18.70;54.50
34492;DHT22;20737;49.908;8.126;2023-04-03T08:56:58;19.10;54.80
34492;DHT22;20737;49.908;8.126;2023-04-03T08:59:31;20.40;52.60
34492;DHT22;20737;49.908;8.126;2023-04-03T09:02:01;20.40;50.10
34492;DHT22;20737;49.908;8.126;2023-04-03T09:04:32;20.30;50.60
34492;DHT22;20737;49.908;8.126;2023-04-03T09:07:04;20.20;50.10
34492;DHT22;20737;49.908;8.126;2023-04-03T09:09:36;19.90;50.20
34492;DHT22;20737;49.908;8.126;2023-04-03T09:12:13;19.60;50.30
34492;DHT22;20737;49.908;8.126;2023-04-03T09:14:49;19.90;49.10
34492;DHT22;20737;49.908;8.126;2023-04-03T09:17:37;20.50;49.70
34492;DHT22;20737;49.908;8.126;2023-04-03T09:20:17;20.10;48.30
34492;DHT22;20737;49.908;8.126;2023-04-03T09:22:46;20.00;48.80
34492;DHT22;20737;49.908;8.126;2023-04-03T09:25:15;20.60;48.50
34492;DHT22;20737;49.908;8.126;2023-04-03T09:27:44;20.80;48.50
34492;DHT22;20737;49.908;8.126;2023-04-03T09:30:15;21.50;47.00
34492;DHT22;20737;49.908;8.126;2023-04-03T09:32:45;21.30;46.80
34492;DHT22;20737;49.908;8.126;2023-04-03T09:35:30;22.20;46.50
34492;DHT22;20737;49.908;8.126;2023-04-03T09:37:59;20.30;46.30
34492;DHT22;20737;49.908;8.126;2023-04-03T09:40:32;19.60;47.30
34492;DHT22;20737;49.908;8.126;2023-04-03T09:43:02;19.90;49.20
34492;DHT22;20737;49.908;8.126;2023-04-03T09:45:32;20.90;46.30
34492;DHT22;20737;49.908;8.126;2023-04-03T09:48:07;21.30;44.90
34492;DHT22;20737;49.908;8.126;2023-04-03T09:50:36;21.00;44.80
34492;DHT22;20737;49.908;8.126;2023-04-03T09:53:05;21.00;46.30
34492;DHT22;20737;49.908;8.126;2023-04-03T09:55:42;18.80;46.20
34492;DHT22;20737;49.908;8.126;2023-04-03T09:58:25;18.20;49.40
34492;DHT22;20737;49.908;8.126;2023-04-03T10:00:56;19.40;47.70
34492;DHT22;20737;49.908;8.126;2023-04-03T10:03:27;17.40;48.70
34492;DHT22;20737;49.908;8.126;2023-04-03T10:05:54;15.00;54.40
34492;DHT22;20737;49.908;8.126;2023-04-03T10:08:25;13.40;58.60
34492;DHT22;20737;49.908;8.126;2023-04-03T10:11:13;12.40;61.30
34492;DHT22;20737;49.908;8.126;2023-04-03T10:13:51;13.10;59.90
34492;DHT22;20737;49.908;8.126;2023-04-03T10:16:22;12.50;61.10
34492;DHT22;20737;49.908;8.126;2023-04-03T10:19:03;12.90;62.10
34492;DHT22;20737;49.908;8.126;2023-04-03T10:21:37;14.60;58.90
34492;DHT22;20737;49.908;8.126;2023-04-03T10:24:11;14.60;55.60
34492;DHT22;20737;49.908;8.126;2023-04-03T10:26:45;12.70;59.10
34492;DHT22;20737;49.908;8.126;2023-04-03T10:29:26;13.50;62.90
34492;DHT22;20737;49.908;8.126;2023-04-03T10:32:01;15.90;57.80
34492;DHT22;20737;49.908;8.126;2023-04-03T10:34:33;15.90;54.10
34492;DHT22;20737;49.908;8.126;2023-04-03T10:37:10;14.90;56.90
34492;DHT22;20737;49.908;8.126;2023-04-03T10:39:46;13.10;60.20
34492;DHT22;20737;49.908;8.126;2023-04-03T10:42:23;14.10;58.70
34492;DHT22;20737;49.908;8.126;2023-04-03T10:45:07;14.20;58.60
34492;DHT22;20737;49.908;8.126;2023-04-03T10:47:41;15.60;58.30
34492;DHT22;20737;49.908;8.126;2023-04-03T10:50:37;16.60;54.50
34492;DHT22;20737;49.908;8.126;2023-04-03T10:53:11;14.70;55.90
34492;DHT22;20737;49.908;8.126;2023-04-03T10:55:42;16.30;57.10
34492;DHT22;20737;49.908;8.126;2023-04-03T10:58:20;18.90;51.10
34492;DHT22;20737;49.908;8.126;2023-04-03T11:00:49;17.90;50.00
34492;DHT22;20737;49.908;8.126;2023-04-03T11:03:26;18.70;50.70
34492;DHT22;20737;49.908;8.126;2023-04-03T11:05:55;20.70;48.20
34492;DHT22;20737;49.908;8.126;2023-04-03T11:08:26;20.60;46.50
34492;DHT22;20737;49.908;8.126;2023-04-03T11:10:56;20.40;47.90
34492;DHT22;20737;49.908;8.126;2023-04-03T11:13:28;20.50;46.30
34492;DHT22;20737;49.908;8.126;2023-04-03T11:15:58;19.50;45.70
34492;DHT22;20737;49.908;8.126;2023-04-03T11:18:31;18.20;50.10
34492;DHT22;20737;49.908;8.126;2023-04-03T11:21:02;17.80;49.20
34492;DHT22;20737;49.908;8.126;2023-04-03T11:23:32;18.40;50.90
34492;DHT22;20737;49.908;8.126;2023-04-03T11:26:09;19.70;46.60
34492;DHT22;20737;49.908;8.126;2023-04-03T11:28:37;21.30;46.80
34492;DHT22;20737;49.908;8.126;2023-04-03T11:31:15;21.80;43.40
34492;DHT22;20737;49.908;8.126;2023-04-03T11:33:54;22.20;43.00
34492;DHT22;20737;49.908;8.126;2023-04-03T11:36:25;21.70;43.70
34492;DHT22;20737;49.908;8.126;2023-04-03T11:38:55;19.40;45.10
34492;DHT22;20737;49.908;8.126;2023-04-03T11:41:28;19.00;47.00
34492;DHT22;20737;49.908;8.126;2023-04-03T11:43:59;19.60;46.90
34492;DHT22;20737;49.908;8.126;2023-04-03T11:46:51;20.50;45.20
34492;DHT22;20737;49.908;8.126;2023-04-03T11:49:56;18.80;46.70
34492;DHT22;20737;49.908;8.126;2023-04-03T11:52:58;18.80;49.00
34492;DHT22;20737;49.908;8.126;2023-04-03T11:55:53;19.30;45.10
34492;DHT22;20737;49.908;8.126;2023-04-03T11:58:21;19.60;47.60
34492;DHT22;20737;49.908;8.126;2023-04-03T12:00:51;20.30;45.10
34492;DHT22;20737;49.908;8.126;2023-04-03T12:12:57;18.10;48.00
34492;DHT22;20737;49.908;8.126;2023-04-03T12:15:52;18.60;47.10
34492;DHT22;20737;49.908;8.126;2023-04-03T12:18:59;18.10;47.80
34492;DHT22;20737;49.908;8.126;2023-04-03T12:22:08;17.30;50.90
34492;DHT22;20737;49.908;8.126;2023-04-03T12:24:37;17.50;50.30
34492;DHT22;20737;49.908;8.126;2023-04-03T12:27:17;17.50;49.40
34492;DHT22;20737;49.908;8.126;2023-04-03T12:29:51;18.00;48.30
34492;DHT22;20737;49.908;8.126;2023-04-03T12:32:30;18.90;48.70
34492;DHT22;20737;49.908;8.126;2023-04-03T12:35:10;20.50;45.00
34492;DHT22;20737;49.908;8.126;2023-04-03T12:37:57;21.40;42.50
34492;DHT22;20737;49.908;8.126;2023-04-03T12:40:31;20.90;41.00
34492;DHT22;20737;49.908;8.126;2023-04-03T12:43:19;20.10;43.10
34492;DHT22;20737;49.908;8.126;2023-04-03T12:45:50;20.40;42.90
34492;DHT22;20737;49.908;8.126;2023-04-03T12:48:24;19.50;43.90
34492;DHT22;20737;49.908;8.126;2023-04-03T12:50:52;19.70;43.90
34492;DHT22;20737;49.908;8.126;2023-04-03T12:53:21;20.70;43.00
34492;DHT22;20737;49.908;8.126;2023-04-03T12:55:54;21.80;39.80
34492;DHT22;20737;49.908;8.126;2023-04-03T12:58:23;21.80;39.20
34492;DHT22;20737;49.908;8.126;2023-04-03T13:01:02;21.20;39.10
34492;DHT22;20737;49.908;8.126;2023-04-03T13:03:30;19.80;41.00
34492;DHT22;20737;49.908;8.126;2023-04-03T13:05:59;19.80;42.20
34492;DHT22;20737;49.908;8.126;2023-04-03T13:08:27;19.20;41.50
34492;DHT22;20737;49.908;8.126;2023-04-03T13:10:57;19.10;42.60
34492;DHT22;20737;49.908;8.126;2023-04-03T13:13:24;20.20;42.00
34492;DHT22;20737;49.908;8.126;2023-04-03T13:15:54;19.80;42.90
34492;DHT22;20737;49.908;8.126;2023-04-03T13:18:24;18.50;43.30
34492;DHT22;20737;49.908;8.126;2023-04-03T13:20:51;18.70;43.50
34492;DHT22;20737;49.908;8.126;2023-04-03T13:23:19;18.40;41.80
34492;DHT22;20737;49.908;8.126;2023-04-03T13:25:48;17.70;44.20
34492;DHT22;20737;49.908;8.126;2023-04-03T13:28:19;17.20;44.20
34492;DHT22;20737;49.908;8.126;2023-04-03T13:31:13;17.70;44.90
34492;DHT22;20737;49.908;8.126;2023-04-03T13:33:54;19.00;43.00
34492;DHT22;20737;49.908;8.126;2023-04-03T13:36:23;19.50;41.70
34492;DHT22;20737;49.908;8.126;2023-04-03T13:38:59;20.20;40.30
34492;DHT22;20737;49.908;8.126;2023-04-03T13:41:30;20.10;39.50
34492;DHT22;20737;49.908;8.126;2023-04-03T13:43:57;19.40;39.60
34492;DHT22;20737;49.908;8.126;2023-04-03T13:46:40;20.00;40.00
34492;DHT22;20737;49.908;8.126;2023-04-03T13:49:19;21.00;40.30
34492;DHT22;20737;49.908;8.126;2023-04-03T13:51:48;21.20;39.80
34492;DHT22;20737;49.908;8.126;2023-04-03T13:54:19;20.30;39.00
34492;DHT22;20737;49.908;8.126;2023-04-03T13:56:53;20.10;40.40
34492;DHT22;20737;49.908;8.126;2023-04-03T13:59:26;20.60;39.60
34492;DHT22;20737;49.908;8.126;2023-04-03T14:01:56;20.30;39.80
34492;DHT22;20737;49.908;8.126;2023-04-03T14:04:47;20.30;39.10
34492;DHT22;20737;49.908;8.126;2023-04-03T14:07:15;20.10;39.00
34492;DHT22;20737;49.908;8.126;2023-04-03T14:09:43;20.00;39.50
34492;DHT22;20737;49.908;8.126;2023-04-03T14:12:16;20.00;39.30
34492;DHT22;20737;49.908;8.126;2023-04-03T14:14:44;19.60;40.60
34492;DHT22;20737;49.908;8.126;2023-04-03T14:17:14;19.20;39.30
34492;DHT22;20737;49.908;8.126;2023-04-03T14:19:43;19.30;40.00
34492;DHT22;20737;49.908;8.126;2023-04-03T14:22:14;19.40;40.80
34492;DHT22;20737;49.908;8.126;2023-04-03T14:24:41;19.50;38.80
34492;DHT22;20737;49.908;8.126;2023-04-03T14:27:15;18.90;39.80
34492;DHT22;20737;49.908;8.126;2023-04-03T14:29:42;18.60;40.20
34492;DHT22;20737;49.908;8.126;2023-04-03T14:32:11;18.40;42.00
34492;DHT22;20737;49.908;8.126;2023-04-03T14:34:38;19.00;42.50
34492;DHT22;20737;49.908;8.126;2023-04-03T14:37:10;19.00;40.00
34492;DHT22;20737;49.908;8.126;2023-04-03T14:39:41;19.00;40.20
34492;DHT22;20737;49.908;8.126;2023-04-03T14:42:15;18.70;40.70
34492;DHT22;20737;49.908;8.126;2023-04-03T14:44:42;18.40;41.10
34492;DHT22;20737;49.908;8.126;2023-04-03T14:47:11;17.30;41.50
34492;DHT22;20737;49.908;8.126;2023-04-03T14:49:38;17.60;42.90
34492;DHT22;20737;49.908;8.126;2023-04-03T14:52:09;16.90;42.50
34492;DHT22;20737;49.908;8.126;2023-04-03T14:54:43;17.20;43.00
34492;DHT22;20737;49.908;8.126;2023-04-03T14:57:12;17.50;43.40
34492;DHT22;20737;49.908;8.126;2023-04-03T14:59:40;17.40;43.60
34492;DHT22;20737;49.908;8.126;2023-04-03T15:02:24;17.00;43.10
34492;DHT22;20737;49.908;8.126;2023-04-03T15:04:51;17.50;44.30
34492;DHT22;20737;49.908;8.126;2023-04-03T15:07:19;17.20;43.30
34492;DHT22;20737;49.908;8.126;2023-04-03T15:09:46;16.80;43.60
34492;DHT22;20737;49.908;8.126;2023-04-03T15:12:13;16.60;43.50
34492;DHT22;20737;49.908;8.126;2023-04-03T15:14:39;16.40;44.40
34492;DHT22;20737;49.908;8.126;2023-04-03T15:17:10;16.20;44.40
34492;DHT22;20737;49.908;8.126;2023-04-03T15:19:40;16.30;44.70
34492;DHT22;20737;49.908;8.126;2023-04-03T15:22:11;16.40;45.10
34492;DHT22;20737;49.908;8.126;2023-04-03T15:24:41;16.00;44.80
34492;DHT22;20737;49.908;8.126;2023-04-03T15:27:08;16.10;45.10
34492;DHT22;20737;49.908;8.126;2023-04-03T15:29:34;16.00;44.80
34492;DHT22;20737;49.908;8.126;2023-04-03T15:32:02;15.60;45.80
34492;DHT22;20737;49.908;8.126;2023-04-03T15:34:28;15.10;46.60
34492;DHT22;20737;49.908;8.126;2023-04-03T15:36:55;14.50;46.50
34492;DHT22;20737;49.908;8.126;2023-04-03T15:39:22;14.20;47.70
34492;DHT22;20737;49.908;8.126;2023-04-03T15:41:52;14.20;48.10
34492;DHT22;20737;49.908;8.126;2023-04-03T15:44:19;13.90;49.10
34492;DHT22;20737;49.908;8.126;2023-04-03T15:46:46;12.90;49.20
34492;DHT22;20737;49.908;8.126;2023-04-03T15:49:16;12.60;51.50
34492;DHT22;20737;49.908;8.126;2023-04-03T15:51:43;12.20;52.10
34492;DHT22;20737;49.908;8.126;2023-04-03T15:54:10;11.80;54.00
34492;DHT22;20737;49.908;8.126;2023-04-03T15:56:39;11.20;54.60
34492;DHT22;20737;49.908;8.126;2023-04-03T15:59:09;10.90;55.20
34492;DHT22;20737;49.908;8.126;2023-04-03T16:01:36;10.30;55.50
34492;DHT22;20737;49.908;8.126;2023-04-03T16:04:03;10.20;56.90
34492;DHT22;20737;49.908;8.126;2023-04-03T16:06:30;10.20;57.50
34492;DHT22;20737;49.908;8.126;2023-04-03T16:08:58;10.20;57.80